Time;durP1;ratioP1;P1;durP2;ratioP2;P2;SDS_P1;SDS_P2;PMS_P1;PMS_P2;Temp;Humidity;BMP_temperature;BMP_pressure;BME280_temperature;BME280_humidity;BME280_pressure;Samples;Min_cycle;Max_cycle;Signal;HPM_P1;HPM_P2
2022/07/30 00:02:18;;;;;;;9.98;4.95;;;;;;;20.25;63.23;101666.69;5094664;28;20134;-59
2022/07/30 00:04:44;;;;;;;9.43;5.05;;;;;;;20.16;63.41;101662.97;5091404;28;20115;-59
2022/07/30 00:07:10;;;;;;;10.93;4.90;;;;;;;20.18;63.59;101667.25;5094234;28;20534;-59
2022/07/30 00:09:35;;;;;;;13.82;5.55;;;;;;;20.04;64.21;101655.97;5092937;28;20027;-59
2022/07/30 00:12:01;;;;;;;9.73;5.22;;;;;;;19.91;65.00;101654.41;5092675;28;20024;-59
2022/07/30 00:14:27;;;;;;;16.65;5.60;;;;;;;20.00;64.84;101650.00;5072539;28;20546;-59
2022/07/30 00:16:52;;;;;;;12.05;5.68;;;;;;;19.84;65.08;101652.38;5093008;28;20156;-59
2022/07/30 00:19:18;;;;;;;11.27;5.40;;;;;;;19.85;65.38;101649.50;5094198;28;20303;-60
2022/07/30 00:21:47;;;;;;;13.60;5.88;;;;;;;19.90;65.62;101651.81;5092574;28;20031;-59
2022/07/30 00:24:14;;;;;;;12.40;6.07;;;;;;;19.96;65.28;101648.56;5091973;28;20119;-59
2022/07/30 00:26:39;;;;;;;9.73;5.68;;;;;;;19.78;65.87;101655.63;5090544;28;20024;-59
2022/07/30 00:29:05;;;;;;;12.13;6.50;;;;;;;19.78;66.01;101644.81;5091664;28;20024;-58
2022/07/30 00:31:33;;;;;;;13.00;6.10;;;;;;;19.78;66.10;101656.47;5090936;28;20040;-59
2022/07/30 00:34:01;;;;;;;13.70;5.90;;;;;;;19.74;66.22;101655.91;5092226;28;20071;-59
2022/07/30 00:36:27;;;;;;;13.73;6.80;;;;;;;19.68;66.56;101658.28;5091184;28;20110;-59
2022/07/30 00:38:55;;;;;;;16.63;6.82;;;;;;;19.59;66.74;101649.13;5093443;28;20039;-60
2022/07/30 00:41:23;;;;;;;12.93;6.30;;;;;;;19.76;66.75;101661.13;5091776;28;20056;-59
2022/07/30 00:43:48;;;;;;;13.00;6.70;;;;;;;19.42;67.68;101661.41;5092945;28;20028;-59
2022/07/30 00:46:13;;;;;;;15.52;6.53;;;;;;;19.43;67.95;101662.25;5092338;28;20376;-59
2022/07/30 00:48:39;;;;;;;10.85;7.35;;;;;;;19.43;67.74;101656.84;5091841;28;20059;-60
2022/07/30 00:51:05;;;;;;;15.05;7.50;;;;;;;19.43;68.20;101662.25;5094552;28;20019;-59
2022/07/30 00:53:32;;;;;;;14.32;6.93;;;;;;;19.33;68.56;101648.72;5092013;28;20024;-60
2022/07/30 00:55:57;;;;;;;12.10;7.00;;;;;;;19.28;68.96;101657.19;5092514;28;20391;-59
2022/07/30 00:58:23;;;;;;;12.75;7.35;;;;;;;19.40;68.47;101657.13;5092023;28;20031;-59
2022/07/30 01:00:48;;;;;;;14.80;7.60;;;;;;;19.35;68.92;101654.81;5091718;28;20139;-60
2022/07/30 01:03:16;;;;;;;13.20;7.18;;;;;;;19.31;69.01;101653.38;5093133;28;20036;-59
2022/07/30 01:05:42;;;;;;;13.50;7.53;;;;;;;19.36;68.74;101651.16;5091752;28;20059;-59
2022/07/30 01:08:07;;;;;;;13.77;7.75;;;;;;;19.32;68.97;101646.16;5090265;28;20050;-59
2022/07/30 01:10:33;;;;;;;11.70;7.95;;;;;;;19.30;69.08;101643.59;5089543;28;20028;-60
2022/07/30 01:13:00;;;;;;;12.77;8.02;;;;;;;19.14;69.39;101629.72;5073656;28;20036;-59
2022/07/30 01:15:26;;;;;;;12.20;8.02;;;;;;;19.10;69.70;101641.78;5092641;28;20102;-60
2022/07/30 01:17:55;;;;;;;16.42;8.95;;;;;;;19.12;69.89;101642.47;5092285;28;20144;-59
2022/07/30 01:20:30;;;;;;;12.70;8.32;;;;;;;19.23;68.96;101645.09;5091508;28;20020;-59
2022/07/30 01:23:05;;;;;;;14.77;8.80;;;;;;;19.14;69.54;101648.59;5093427;28;20483;-59
2022/07/30 01:25:30;;;;;;;19.38;9.00;;;;;;;19.14;69.75;101637.81;5088602;28;20450;-59
2022/07/30 01:28:10;;;;;;;14.32;8.75;;;;;;;19.20;68.99;101648.91;5094520;28;20055;-59
2022/07/30 01:30:40;;;;;;;15.18;9.00;;;;;;;19.08;69.67;101636.50;5088899;28;20445;-59
2022/07/30 01:33:09;;;;;;;15.15;9.63;;;;;;;18.92;70.45;101652.31;5091275;28;20016;-60
2022/07/30 01:35:36;;;;;;;17.23;9.52;;;;;;;18.89;70.23;101653.41;5089465;28;20024;-59
2022/07/30 01:38:04;;;;;;;15.93;9.45;;;;;;;18.79;70.91;101650.63;5073643;28;20046;-60
2022/07/30 01:40:31;;;;;;;15.65;10.15;;;;;;;18.81;70.89;101654.06;5088697;28;20032;-59
2022/07/30 01:42:59;;;;;;;18.58;10.25;;;;;;;18.81;70.97;101651.38;5091982;28;20076;-60
2022/07/30 01:45:27;;;;;;;16.52;9.68;;;;;;;18.73;70.86;101651.16;5091529;28;20028;-59
2022/07/30 01:47:57;;;;;;;13.17;9.97;;;;;;;18.75;71.18;101649.19;5090079;28;20027;-59
2022/07/30 01:50:22;;;;;;;;;;;;;;;19.01;67.90;101654.22;5088481;28;20040;-59
2022/07/30 01:52:51;;;;;;;14.00;9.40;;;;;;;18.75;71.13;101651.88;5072840;28;20007;-60
2022/07/30 01:55:24;;;;;;;17.95;11.63;;;;;;;18.73;71.32;101656.53;5090511;28;20533;-59
2022/07/30 01:57:54;;;;;;;17.77;11.25;;;;;;;18.58;71.82;101660.50;5091539;28;20548;-59
2022/07/30 02:00:21;;;;;;;15.52;10.10;;;;;;;18.53;72.33;101647.44;5093275;28;20027;-59
2022/07/30 02:02:48;;;;;;;16.67;11.05;;;;;;;18.47;72.30;101656.03;5088949;28;20038;-60
2022/07/30 02:05:13;;;;;;;13.52;10.98;;;;;;;18.44;72.59;101660.81;5090636;28;20062;-59
2022/07/30 02:07:57;;;;;;;16.52;10.93;;;;;;;18.42;72.58;101654.72;5089558;28;20036;-59
2022/07/30 02:10:31;;;;;;;21.27;12.18;;;;;;;18.36;72.97;101654.22;5090306;28;20431;-59
2022/07/30 02:13:00;;;;;;;19.65;12.63;;;;;;;18.38;72.79;101663.06;5091110;28;20035;-59
2022/07/30 02:15:36;;;;;;;18.05;12.18;;;;;;;18.38;72.86;101662.16;5090825;28;20020;-59
2022/07/30 02:18:27;;;;;;;16.50;12.00;;;;;;;18.31;73.08;101664.53;5091717;28;20032;-59
2022/07/30 02:21:00;;;;;;;18.38;12.18;;;;;;;18.29;73.06;101661.09;5081915;28;20093;-59
2022/07/30 02:23:28;;;;;;;21.25;12.52;;;;;;;18.29;73.24;101663.78;5089633;28;20540;-60
2022/07/30 02:25:58;;;;;;;20.25;12.13;;;;;;;18.37;72.95;101663.16;5088759;28;20028;-58
2022/07/30 02:28:26;;;;;;;19.00;12.38;;;;;;;18.27;72.77;101648.75;5090095;28;20031;-59
2022/07/30 02:30:58;;;;;;;18.80;11.98;;;;;;;18.32;72.80;101654.59;5087928;28;20030;-59
2022/07/30 02:33:37;;;;;;;14.10;12.05;;;;;;;18.28;72.58;101656.69;5090078;28;20542;-59
2022/07/30 02:36:08;;;;;;;20.65;13.30;;;;;;;18.26;72.51;101658.66;5088034;28;20089;-60
2022/07/30 02:38:35;;;;;;;15.13;13.18;;;;;;;18.19;72.44;101672.78;5090337;28;20028;-59
2022/07/30 02:41:02;;;;;;;21.42;13.50;;;;;;;18.08;73.33;101657.47;5090807;28;20027;-59
2022/07/30 02:43:28;;;;;;;15.38;13.15;;;;;;;18.12;73.48;101672.44;5090941;28;20020;-60
2022/07/30 02:45:55;;;;;;;20.55;13.00;;;;;;;18.08;73.07;101663.72;5089376;28;20077;-60
2022/07/30 02:48:22;;;;;;;16.15;13.38;;;;;;;18.14;73.06;101665.91;5091058;28;20028;-60
2022/07/30 02:50:50;;;;;;;19.77;13.93;;;;;;;18.12;73.33;101670.59;5090095;28;20032;-59
2022/07/30 02:53:18;;;;;;;17.08;13.15;;;;;;;18.18;72.71;101658.47;5096806;28;20470;-60
2022/07/30 02:55:45;;;;;;;19.40;13.07;;;;;;;18.15;72.50;101661.41;5095528;28;20429;-58
2022/07/30 02:58:16;;;;;;;22.05;14.93;;;;;;;18.06;73.27;101664.81;5093256;28;20036;-59
2022/07/30 03:00:42;;;;;;;16.35;13.40;;;;;;;18.03;73.29;101665.06;5093337;28;20059;-59
2022/07/30 03:03:12;;;;;;;15.27;13.65;;;;;;;18.03;73.03;101673.16;5095587;28;20032;-60
2022/07/30 03:05:40;;;;;;;19.00;13.85;;;;;;;17.95;73.60;101676.47;5093701;28;20016;-60
2022/07/30 03:08:07;;;;;;;17.65;13.77;;;;;;;17.91;73.48;101672.31;5080455;28;20028;-58
2022/07/30 03:10:33;;;;;;;17.17;13.77;;;;;;;17.90;73.59;101678.69;5091898;28;20077;-58
2022/07/30 03:13:01;;;;;;;18.35;14.25;;;;;;;17.73;73.77;101674.63;5093942;28;20080;-58
2022/07/30 03:15:29;;;;;;;20.40;14.60;;;;;;;17.68;74.07;101672.31;5094097;28;20070;-59
2022/07/30 03:17:57;;;;;;;22.23;14.95;;;;;;;17.63;74.56;101673.66;5094041;28;20059;-59
2022/07/30 03:20:28;;;;;;;19.55;14.48;;;;;;;17.61;74.77;101668.38;5097924;28;20133;-60
2022/07/30 03:22:57;;;;;;;18.90;14.95;;;;;;;17.66;74.42;101668.88;5096133;28;20012;-59
2022/07/30 03:25:25;;;;;;;21.02;14.40;;;;;;;17.74;73.99;101670.13;5095702;28;20023;-58
2022/07/30 03:27:59;;;;;;;20.73;14.50;;;;;;;17.67;74.54;101665.19;5093744;28;20095;-58
2022/07/30 03:30:25;;;;;;;18.35;14.23;;;;;;;17.73;73.64;101669.22;5093469;28;20108;-59
2022/07/30 03:32:52;;;;;;;18.92;15.02;;;;;;;17.64;73.68;101670.81;5093488;28;20032;-59
2022/07/30 03:35:20;;;;;;;18.50;15.07;;;;;;;17.64;73.85;101667.28;5089351;28;20093;-60
2022/07/30 03:37:47;;;;;;;22.95;14.90;;;;;;;17.68;73.61;101669.63;5093112;28;20056;-60
2022/07/30 03:40:14;;;;;;;21.30;14.77;;;;;;;17.59;73.77;101675.75;5092500;28;20479;-58
2022/07/30 03:42:40;;;;;;;17.75;13.90;;;;;;;17.51;73.74;101664.72;5092023;28;20035;-59
2022/07/30 03:45:07;;;;;;;18.58;14.45;;;;;;;17.55;73.81;101674.25;5093084;28;20028;-59
2022/07/30 03:47:36;;;;;;;21.23;15.70;;;;;;;17.46;74.07;101673.16;5095170;28;20055;-59
2022/07/30 03:50:02;;;;;;;17.23;14.67;;;;;;;17.35;74.14;101675.81;5094140;28;20032;-59
2022/07/30 03:52:28;;;;;;;16.70;14.52;;;;;;;17.34;74.29;101679.50;5092936;28;20281;-58
2022/07/30 03:54:54;;;;;;;19.42;14.48;;;;;;;17.36;74.47;101680.25;5092531;28;20502;-60
2022/07/30 03:57:20;;;;;;;17.70;14.75;;;;;;;17.37;74.70;101683.78;5093458;28;20387;-59
2022/07/30 03:59:50;;;;;;;18.92;15.48;;;;;;;17.38;74.47;101685.47;5093204;28;20103;-59
2022/07/30 04:02:15;;;;;;;20.52;14.65;;;;;;;17.29;74.96;101691.59;5091530;28;20044;-59
2022/07/30 04:04:42;;;;;;;20.05;14.35;;;;;;;17.27;74.71;101694.41;5091373;28;20035;-60
2022/07/30 04:07:10;;;;;;;22.25;14.15;;;;;;;17.29;74.38;101686.22;5094436;28;20028;-58
2022/07/30 04:09:35;;;;;;;18.52;13.98;;;;;;;17.15;74.75;101693.53;5091041;28;20552;-59
2022/07/30 04:12:01;;;;;;;20.52;14.68;;;;;;;17.21;74.59;101701.13;5092000;28;20023;-60
2022/07/30 04:14:37;;;;;;;20.08;13.23;;;;;;;17.21;74.45;101693.06;5091326;28;20398;-59
2022/07/30 04:17:11;;;;;;;14.77;12.93;;;;;;;17.21;74.66;101703.81;5093332;28;20467;-58
2022/07/30 04:20:08;;;;;;;18.92;13.60;;;;;;;17.30;74.04;101709.44;5093803;28;20053;-59
2022/07/30 04:22:36;;;;;;;17.17;13.90;;;;;;;17.23;74.63;101711.75;5078866;28;20044;-59
2022/07/30 04:25:05;;;;;;;16.85;13.88;;;;;;;17.22;75.20;101712.72;5091004;28;20030;-59
2022/07/30 04:27:32;;;;;;;16.90;13.32;;;;;;;17.15;75.34;101711.50;5090878;28;20024;-58
2022/07/30 04:29:58;;;;;;;20.02;14.02;;;;;;;17.18;75.36;101714.78;5092297;28;20024;-58
2022/07/30 04:32:24;;;;;;;16.60;13.43;;;;;;;17.16;75.14;101710.50;5091232;28;20036;-59
2022/07/30 04:34:51;;;;;;;16.25;13.70;;;;;;;17.18;75.27;101708.56;5085475;28;20039;-60
2022/07/30 04:37:21;;;;;;;15.75;12.95;;;;;;;17.11;75.15;101704.63;5088033;28;20389;-60
2022/07/30 04:39:50;;;;;;;16.13;12.77;;;;;;;17.07;75.38;101711.22;5092493;28;20020;-59
2022/07/30 04:42:15;;;;;;;18.52;14.25;;;;;;;17.06;75.79;101718.44;5091871;28;20028;-59
2022/07/30 04:44:41;;;;;;;17.83;14.40;;;;;;;17.06;75.85;101731.88;5091919;28;20397;-59
2022/07/30 04:47:07;;;;;;;21.13;12.90;;;;;;;17.05;76.08;101731.97;5089674;28;20038;-60
2022/07/30 04:49:36;;;;;;;15.77;13.02;;;;;;;17.09;76.31;101736.13;5090403;28;20035;-60
2022/07/30 04:52:03;;;;;;;16.90;12.88;;;;;;;17.06;76.33;101726.50;5089988;28;20514;-59
2022/07/30 04:54:48;;;;;;;17.05;13.57;;;;;;;17.12;76.23;101741.28;5090183;28;20027;-59
2022/07/30 04:57:15;;;;;;;15.98;12.40;;;;;;;17.09;76.40;101738.81;5091664;28;20034;-59
2022/07/30 04:59:41;;;;;;;15.38;12.30;;;;;;;17.16;76.65;101743.63;5090961;28;20016;-59
2022/07/30 05:02:09;;;;;;;17.77;12.80;;;;;;;17.24;76.11;101743.03;5091120;28;20051;-59
2022/07/30 05:04:35;;;;;;;16.45;12.35;;;;;;;17.21;76.23;101741.44;5090881;28;20077;-59
2022/07/30 05:07:04;;;;;;;19.63;12.88;;;;;;;17.25;76.34;101750.97;5092078;28;20549;-59
2022/07/30 05:09:30;;;;;;;15.77;11.98;;;;;;;17.21;76.62;101743.28;5091589;28;20039;-59
2022/07/30 05:11:59;;;;;;;20.85;13.07;;;;;;;17.17;76.74;101748.00;5092251;28;20027;-59
2022/07/30 05:14:25;;;;;;;15.80;12.38;;;;;;;17.10;76.41;101727.97;5086969;28;20493;-59
2022/07/30 05:16:52;;;;;;;15.20;11.27;;;;;;;17.24;76.57;101732.28;5090454;28;20036;-59
2022/07/30 05:19:18;;;;;;;17.00;12.20;;;;;;;17.20;76.70;101747.78;5089407;28;20183;-59
2022/07/30 05:21:44;;;;;;;16.42;12.40;;;;;;;17.32;76.10;101734.38;5090416;28;20111;-59
2022/07/30 05:24:09;;;;;;;17.83;12.13;;;;;;;17.31;76.13;101733.50;5088309;28;20161;-60
2022/07/30 05:26:35;;;;;;;21.27;11.88;;;;;;;17.40;76.23;101732.78;5090760;28;20036;-59
2022/07/30 05:29:00;;;;;;;17.17;12.13;;;;;;;17.51;76.05;101744.56;5090208;28;20032;-60
2022/07/30 05:31:26;;;;;;;15.65;11.70;;;;;;;17.49;76.04;101747.38;5091475;28;20023;-59
2022/07/30 05:33:52;;;;;;;15.38;11.93;;;;;;;17.60;76.05;101746.53;5090240;28;20040;-59
2022/07/30 05:36:18;;;;;;;13.45;11.48;;;;;;;17.58;76.21;101743.09;5090072;28;20028;-59
2022/07/30 05:38:44;;;;;;;16.63;12.25;;;;;;;17.62;76.15;101752.66;5091609;28;20115;-59
2022/07/30 05:41:12;;;;;;;14.40;12.02;;;;;;;17.77;75.54;101753.28;5089607;28;20027;-59
2022/07/30 05:43:40;;;;;;;18.30;12.10;;;;;;;17.84;75.30;101750.00;5089418;28;20399;-59
2022/07/30 05:46:05;;;;;;;16.23;12.52;;;;;;;17.86;75.40;101750.75;5088994;28;20035;-59
2022/07/30 05:48:34;;;;;;;16.63;12.98;;;;;;;17.98;75.11;101759.69;5090226;28;20024;-59
2022/07/30 05:51:00;;;;;;;15.68;11.82;;;;;;;18.01;75.18;101759.44;5090134;28;20032;-59
2022/07/30 05:53:26;;;;;;;16.80;11.57;;;;;;;18.02;74.75;101757.59;5089736;28;20100;-59
2022/07/30 05:55:52;;;;;;;14.95;11.77;;;;;;;18.14;74.32;101756.59;5090877;28;20165;-60
2022/07/30 05:58:20;;;;;;;15.10;12.13;;;;;;;18.11;74.47;101759.53;5090701;28;20032;-59
2022/07/30 06:00:46;;;;;;;17.30;12.23;;;;;;;18.19;74.37;101761.63;5088957;28;20078;-60
2022/07/30 06:03:14;;;;;;;22.80;12.43;;;;;;;18.22;74.54;101759.53;5089203;28;20494;-59
2022/07/30 06:05:40;;;;;;;15.30;11.80;;;;;;;18.33;74.41;101764.91;5091021;28;20028;-60
2022/07/30 06:08:05;;;;;;;17.10;10.55;;;;;;;18.47;73.97;101768.31;5089947;28;20103;-59
2022/07/30 06:10:31;;;;;;;18.02;9.90;;;;;;;18.50;73.68;101763.56;5090437;28;20161;-59
2022/07/30 06:12:56;;;;;;;19.30;10.05;;;;;;;18.57;73.63;101775.53;5090450;28;20020;-59
2022/07/30 06:15:24;;;;;;;12.55;9.45;;;;;;;18.59;73.36;101775.41;5089448;28;20089;-59
2022/07/30 06:17:50;;;;;;;14.20;9.63;;;;;;;18.77;72.82;101773.06;5089572;28;20109;-59
2022/07/30 06:20:19;;;;;;;15.73;9.82;;;;;;;18.86;72.07;101771.44;5089464;28;20036;-60
2022/07/30 06:22:46;;;;;;;15.65;9.80;;;;;;;18.95;72.08;101786.84;5089268;28;20372;-59
2022/07/30 06:25:12;;;;;;;17.40;8.95;;;;;;;19.00;71.62;101771.13;5088311;28;20497;-59
2022/07/30 06:27:38;;;;;;;12.95;9.85;;;;;;;19.04;71.53;101780.69;5092556;28;20063;-59
2022/07/30 06:30:08;;;;;;;16.55;9.13;;;;;;;19.15;71.10;101787.84;5095210;28;20068;-59
2022/07/30 06:32:35;;;;;;;13.13;9.00;;;;;;;19.22;71.02;101781.81;5094671;28;20028;-59
2022/07/30 06:35:01;;;;;;;13.45;9.02;;;;;;;19.24;71.00;101787.09;5098177;28;20020;-59
2022/07/30 06:37:29;;;;;;;14.43;8.90;;;;;;;19.17;70.34;101788.56;5094045;28;20038;-60
2022/07/30 06:39:54;;;;;;;9.45;7.80;;;;;;;19.14;70.47;101778.91;5094308;28;20093;-59
2022/07/30 06:42:20;;;;;;;13.07;8.23;;;;;;;19.19;69.40;101789.31;5093341;28;20028;-59
2022/07/30 06:44:46;;;;;;;13.07;8.27;;;;;;;19.31;69.83;101799.06;5093367;28;20032;-59
2022/07/30 06:47:12;;;;;;;15.25;8.30;;;;;;;19.36;69.71;101802.22;5096046;28;20043;-59
2022/07/30 06:49:38;;;;;;;10.35;7.47;;;;;;;19.38;69.12;101791.28;5094491;28;20024;-60
2022/07/30 06:52:05;;;;;;;10.50;7.57;;;;;;;19.50;69.00;101788.41;5095829;28;20099;-60
2022/07/30 06:54:32;;;;;;;12.45;7.88;;;;;;;19.45;69.18;101787.09;5093839;28;20027;-59
2022/07/30 06:56:57;;;;;;;10.25;7.47;;;;;;;19.52;68.79;101782.88;5093346;28;20040;-59
2022/07/30 06:59:22;;;;;;;13.60;6.85;;;;;;;19.62;68.74;101791.91;5092649;28;20387;-60
2022/07/30 07:01:49;;;;;;;8.13;5.70;;;;;;;19.64;68.75;101798.00;5095394;28;20099;-59
2022/07/30 07:04:14;;;;;;;12.15;6.25;;;;;;;19.54;67.84;101793.56;5094196;28;20045;-60
2022/07/30 07:06:42;;;;;;;11.43;5.90;;;;;;;19.58;67.21;101800.38;5093066;28;20070;-59
2022/07/30 07:09:08;;;;;;;10.43;6.22;;;;;;;19.68;67.49;101804.03;5092464;28;20039;-59
2022/07/30 07:11:34;;;;;;;14.30;7.10;;;;;;;19.68;67.85;101804.91;5094071;28;20391;-60
2022/07/30 07:13:59;;;;;;;10.23;5.72;;;;;;;19.66;67.68;101800.63;5093153;28;20027;-59
2022/07/30 07:16:24;;;;;;;9.10;4.95;;;;;;;19.87;66.93;101800.59;5075790;28;20459;-59
2022/07/30 07:18:54;;;;;;;11.68;5.38;;;;;;;20.01;67.09;101804.78;5092742;28;20035;-59
2022/07/30 07:21:20;;;;;;;8.57;4.95;;;;;;;20.25;66.29;101796.34;5095605;28;20027;-59
2022/07/30 07:23:49;;;;;;;15.73;5.30;;;;;;;20.43;65.01;101800.09;5095821;28;20376;-60
2022/07/30 07:26:16;;;;;;;13.48;4.30;;;;;;;20.56;62.56;101798.06;5077020;28;20028;-59
2022/07/30 07:28:42;;;;;;;9.32;4.45;;;;;;;20.62;63.93;101797.50;5093523;28;20040;-60
2022/07/30 07:31:09;;;;;;;7.50;4.20;;;;;;;20.71;62.49;101806.63;5093652;28;20028;-60
2022/07/30 07:33:35;;;;;;;7.40;4.32;;;;;;;20.70;62.07;101801.34;5092619;28;20099;-59
2022/07/30 07:36:01;;;;;;;10.82;3.20;;;;;;;20.80;60.87;101797.66;5094505;28;20028;-59
2022/07/30 07:38:27;;;;;;;6.78;2.90;;;;;;;20.77;59.50;101797.09;5074849;28;20043;-59
2022/07/30 07:40:53;;;;;;;7.47;3.30;;;;;;;20.89;59.92;101804.09;5093350;28;20036;-59
2022/07/30 07:43:18;;;;;;;5.60;2.83;;;;;;;20.96;59.83;101807.06;5093560;28;20414;-59
2022/07/30 07:45:46;;;;;;;8.93;3.25;;;;;;;21.02;59.24;101804.66;5096456;28;20109;-59
2022/07/30 07:48:12;;;;;;;10.40;3.95;;;;;;;21.16;59.46;101803.38;5093036;28;20118;-59
2022/07/30 07:50:37;;;;;;;7.82;3.80;;;;;;;21.19;59.93;101804.97;5094139;28;20040;-60
2022/07/30 07:53:03;;;;;;;5.13;2.97;;;;;;;21.43;57.83;101801.84;5092839;28;20039;-59
2022/07/30 07:55:29;;;;;;;8.27;3.50;;;;;;;21.27;58.72;101803.25;5092858;28;20490;-60
2022/07/30 07:57:54;;;;;;;5.05;2.92;;;;;;;21.30;58.93;101805.66;5092326;28;20104;-60
2022/07/30 08:00:20;;;;;;;7.40;3.42;;;;;;;21.51;58.19;101797.41;5092903;28;20039;-60
2022/07/30 08:02:46;;;;;;;10.20;3.38;;;;;;;21.70;57.84;101804.63;5094262;28;20044;-60
2022/07/30 08:05:12;;;;;;;8.57;3.10;;;;;;;21.73;57.25;101806.19;5093163;28;20024;-59
2022/07/30 08:07:38;;;;;;;8.05;2.70;;;;;;;21.90;55.69;101808.13;5093104;28;20502;-60
2022/07/30 08:10:05;;;;;;;5.63;3.22;;;;;;;21.85;54.68;101801.44;5092674;28;20383;-60
2022/07/30 08:12:30;;;;;;;5.97;2.88;;;;;;;21.85;54.34;101794.19;5094443;28;20027;-60
2022/07/30 08:14:56;;;;;;;6.55;3.40;;;;;;;21.88;56.49;101803.88;5091559;28;20529;-58
2022/07/30 08:17:21;;;;;;;8.15;3.17;;;;;;;21.81;56.15;101805.47;5092884;28;20387;-58
2022/07/30 08:19:47;;;;;;;9.20;3.17;;;;;;;21.99;55.69;101801.84;5091523;28;20035;-60
2022/07/30 08:22:13;;;;;;;5.10;2.50;;;;;;;22.15;55.15;101795.81;5092640;28;20031;-60
2022/07/30 08:24:38;;;;;;;6.63;2.92;;;;;;;22.36;53.68;101792.88;5073956;28;20155;-59
2022/07/30 08:27:04;;;;;;;5.60;2.58;;;;;;;22.36;53.39;101792.88;5091517;28;20043;-59
2022/07/30 08:29:33;;;;;;;6.45;3.08;;;;;;;22.43;54.04;101803.97;5091122;28;20027;-60
2022/07/30 08:31:59;;;;;;;8.02;3.15;;;;;;;22.56;52.89;101804.47;5093264;28;20051;-60
2022/07/30 08:34:25;;;;;;;8.98;2.95;;;;;;;22.68;53.06;101807.81;5074709;28;20078;-60
2022/07/30 08:36:51;;;;;;;6.95;2.58;;;;;;;22.83;51.21;101809.00;5092346;28;20031;-59
2022/07/30 08:39:17;;;;;;;5.13;2.40;;;;;;;22.91;52.65;101808.22;5090681;28;20024;-59
2022/07/30 08:41:44;;;;;;;8.95;3.28;;;;;;;22.74;51.54;101803.66;5094952;28;20121;-59
2022/07/30 08:44:11;;;;;;;7.88;3.20;;;;;;;22.86;51.31;101810.56;5092197;28;20028;-59
2022/07/30 08:46:41;;;;;;;6.40;3.22;;;;;;;22.87;51.60;101806.81;5092436;28;20031;-60
2022/07/30 08:49:08;;;;;;;7.20;2.55;;;;;;;23.04;50.93;101802.47;5090317;28;20081;-60
2022/07/30 08:51:34;;;;;;;6.65;2.40;;;;;;;23.06;50.94;101808.56;5091747;28;20500;-59
2022/07/30 08:54:01;;;;;;;4.25;2.30;;;;;;;23.31;49.82;101805.06;5090012;28;20095;-59
2022/07/30 08:56:27;;;;;;;5.72;2.88;;;;;;;23.35;49.80;101801.06;5090617;28;20082;-59
2022/07/30 08:58:54;;;;;;;3.30;2.22;;;;;;;23.56;48.92;101805.28;5092442;28;20032;-60
2022/07/30 09:01:23;;;;;;;5.57;2.85;;;;;;;23.52;49.26;101790.28;5094289;28;20515;-59
2022/07/30 09:03:49;;;;;;;4.85;2.90;;;;;;;23.77;48.91;101800.34;5093453;28;20039;-59
2022/07/30 09:06:15;;;;;;;3.97;2.80;;;;;;;23.69;48.76;101799.41;5091913;28;20024;-59
2022/07/30 09:08:40;;;;;;;7.35;2.50;;;;;;;23.92;48.71;101799.78;5092690;28;20031;-59
2022/07/30 09:11:07;;;;;;;7.90;3.53;;;;;;;23.90;47.52;101799.06;5091190;28;20131;-60
2022/07/30 09:13:35;;;;;;;6.68;2.85;;;;;;;24.04;49.06;101806.63;5091965;28;20086;-60
2022/07/30 09:16:01;;;;;;;7.30;3.20;;;;;;;24.12;47.28;101805.81;5091866;28;20028;-60
2022/07/30 09:18:38;;;;;;;6.20;2.38;;;;;;;24.19;47.91;101809.59;5091644;28;20107;-58
2022/07/30 09:21:17;;;;;;;8.52;2.47;;;;;;;24.50;47.49;101812.63;5090736;28;20081;-61
2022/07/30 09:24:06;;;;;;;5.45;2.63;;;;;;;24.56;46.71;101817.44;5089929;28;20442;-59
2022/07/30 09:26:50;;;;;;;7.72;2.88;;;;;;;24.53;45.36;101822.31;5088896;28;20036;-60
2022/07/30 09:29:21;;;;;;;5.63;2.55;;;;;;;24.29;47.18;101823.91;5092715;28;20492;-62
2022/07/30 09:32:04;;;;;;;5.43;2.20;;;;;;;24.45;46.36;101834.03;5093129;28;20032;-62
2022/07/30 09:34:31;;;;;;;4.97;2.40;;;;;;;24.38;45.97;101830.22;5092741;28;20023;-62
2022/07/30 09:36:59;;;;;;;7.57;2.50;;;;;;;24.30;47.00;101827.50;5089944;28;20026;-61
2022/07/30 09:39:34;;;;;;;6.15;2.58;;;;;;;24.25;46.52;101819.81;5091316;28;20036;-61
2022/07/30 09:42:02;;;;;;;9.48;2.30;;;;;;;24.28;46.28;101822.22;5088577;28;20114;-60
2022/07/30 09:44:28;;;;;;;5.30;2.30;;;;;;;24.26;45.90;101822.34;5092963;28;20032;-62
2022/07/30 09:46:55;;;;;;;7.50;2.55;;;;;;;24.17;46.27;101820.63;5090117;28;20035;-62
2022/07/30 09:49:26;;;;;;;3.90;2.20;;;;;;;24.29;46.56;101814.91;5089850;28;20035;-62
2022/07/30 09:51:55;;;;;;;8.55;2.35;;;;;;;24.32;45.16;101815.41;5090956;28;20118;-62
2022/07/30 09:54:20;;;;;;;4.68;1.85;;;;;;;24.34;45.03;101802.50;5091204;28;20027;-62
2022/07/30 09:56:46;;;;;;;5.10;2.22;;;;;;;24.36;45.81;101795.06;5088140;28;20050;-61
2022/07/30 09:59:32;;;;;;;4.53;2.20;;;;;;;24.50;46.01;101795.47;5073355;28;20043;-63
2022/07/30 10:01:57;;;;;;;6.93;2.40;;;;;;;24.47;44.77;101797.50;5091210;28;20375;-65
2022/07/30 10:04:31;;;;;;;4.13;2.13;;;;;;;24.63;44.72;101793.97;5090804;28;20028;-62
2022/07/30 10:07:01;;;;;;;4.20;2.03;;;;;;;24.66;44.17;101790.94;5091147;28;20030;-63
2022/07/30 10:09:32;;;;;;;3.55;2.00;;;;;;;24.45;44.29;101787.81;5089096;28;20016;-65
2022/07/30 10:12:02;;;;;;;4.10;1.90;;;;;;;24.62;44.12;101797.72;5090663;28;20036;-65
2022/07/30 10:14:34;;;;;;;3.50;2.30;;;;;;;24.68;44.66;101794.34;5090048;28;20024;-60
2022/07/30 10:17:00;;;;;;;5.10;2.08;;;;;;;24.55;44.56;101790.38;5089767;28;20157;-64
2022/07/30 10:19:26;;;;;;;5.00;2.33;;;;;;;24.59;44.70;101789.03;5090495;28;20095;-60
2022/07/30 10:21:55;;;;;;;6.57;2.30;;;;;;;24.78;44.13;101790.63;5089088;28;20119;-61
2022/07/30 10:24:21;;;;;;;5.97;2.20;;;;;;;24.80;44.05;101788.59;5092556;28;20054;-60
2022/07/30 10:26:51;;;;;;;4.53;2.08;;;;;;;24.89;42.57;101793.03;5087835;28;20043;-61
2022/07/30 10:29:18;;;;;;;6.05;1.83;;;;;;;24.95;42.84;101786.06;5089868;28;20918;-60
2022/07/30 10:31:45;;;;;;;4.22;2.45;;;;;;;24.99;42.90;101796.44;5088692;28;20015;-61
2022/07/30 10:34:16;;;;;;;3.83;1.85;;;;;;;24.78;42.57;101777.84;5102676;28;20360;-61
2022/07/30 10:37:03;;;;;;;3.88;2.10;;;;;;;25.07;43.94;101793.72;5092015;28;20478;-61
2022/07/30 10:39:50;;;;;;;3.47;1.90;;;;;;;25.14;43.75;101783.88;5087390;28;20036;-61
2022/07/30 10:42:38;;;;;;;4.82;1.67;;;;;;;25.27;41.20;101791.56;5089598;28;20047;-60
2022/07/30 10:45:22;;;;;;;2.30;1.67;;;;;;;25.29;42.46;101791.38;5090902;28;20028;-60
2022/07/30 10:47:49;;;;;;;4.45;1.85;;;;;;;25.34;41.72;101787.13;5090218;28;20024;-60
2022/07/30 10:50:21;;;;;;;5.53;2.40;;;;;;;25.34;42.68;101797.16;5089248;28;20035;-60
2022/07/30 10:52:52;;;;;;;4.97;2.10;;;;;;;25.45;41.95;101793.25;5087713;28;20020;-62
2022/07/30 10:55:29;;;;;;;4.50;1.75;;;;;;;25.67;42.27;101802.56;5088804;28;20027;-61
2022/07/30 10:58:09;;;;;;;9.82;2.40;;;;;;;25.57;42.03;101794.59;5090369;28;20061;-59
2022/07/30 11:00:50;;;;;;;5.72;1.90;;;;;;;25.58;42.50;101797.13;5088705;28;20031;-59
2022/07/30 11:03:24;;;;;;;3.60;1.92;;;;;;;25.52;42.04;101792.38;5089223;28;20487;-59
2022/07/30 11:06:10;;;;;;;8.70;1.80;;;;;;;25.61;43.06;101780.44;5088885;28;20051;-59
2022/07/30 11:08:40;;;;;;;3.83;1.83;;;;;;;25.74;42.52;101779.91;5090619;28;20028;-58
2022/07/30 11:11:21;;;;;;;6.68;2.28;;;;;;;25.79;43.36;101782.94;5088117;28;20023;-60
2022/07/30 11:13:56;;;;;;;3.13;2.20;;;;;;;25.75;42.69;101791.66;5089898;28;20016;-58
2022/07/30 11:16:43;;;;;;;4.80;2.47;;;;;;;25.87;42.17;101793.03;5092854;28;20031;-59
2022/07/30 11:19:16;;;;;;;6.93;2.10;;;;;;;25.97;41.74;101788.25;5091347;28;20024;-58
2022/07/30 11:21:44;;;;;;;3.65;1.90;;;;;;;26.00;41.95;101782.44;5090698;28;20028;-59
2022/07/30 11:24:44;;;;;;;4.88;2.10;;;;;;;26.19;41.55;101777.59;5092779;28;20024;-59